sensor_id;sensor_type;location;lat;lon;timestamp;P1;durP1;ratioP1;P2;durP2;ratioP2
19951;SDS011;10137;49.406;19.484;2023-04-22T00:01:53;16.53;;;10.50;;
19951;SDS011;10137;49.406;19.484;2023-04-22T00:04:21;17.50;;;10.40;;
19951;SDS011;10137;49.406;19.484;2023-04-22T00:06:50;21.70;;;11.17;;
19951;SDS011;10137;49.406;19.484;2023-04-22T00:09:19;21.63;;;10.93;;
19951;SDS011;10137;49.406;19.484;2023-04-22T00:11:47;22.33;;;11.17;;
19951;SDS011;10137;49.406;19.484;2023-04-22T00:14:17;21.53;;;11.47;;
19951;SDS011;10137;49.406;19.484;2023-04-22T00:16:44;19.40;;;10.30;;
19951;SDS011;10137;49.406;19.484;2023-04-22T00:19:12;22.17;;;10.67;;
19951;SDS011;10137;49.406;19.484;2023-04-22T00:21:40;18.47;;;10.03;;
19951;SDS011;10137;49.406;19.484;2023-04-22T00:24:08;20.47;;;11.00;;
19951;SDS011;10137;49.406;19.484;2023-04-22T00:26:36;17.93;;;10.90;;
19951;SDS011;10137;49.406;19.484;2023-04-22T00:29:05;17.77;;;10.87;;
19951;SDS011;10137;49.406;19.484;2023-04-22T00:31:33;20.50;;;10.53;;
19951;SDS011;10137;49.406;19.484;2023-04-22T00:34:02;20.33;;;10.73;;
19951;SDS011;10137;49.406;19.484;2023-04-22T00:36:30;18.73;;;10.20;;
19951;SDS011;10137;49.406;19.484;2023-04-22T00:38:58;21.37;;;10.67;;
19951;SDS011;10137;49.406;19.484;2023-04-22T00:41:27;18.60;;;9.80;;
19951;SDS011;10137;49.406;19.484;2023-04-22T00:43:56;18.27;;;9.80;;
19951;SDS011;10137;49.406;19.484;2023-04-22T00:46:26;18.60;;;9.87;;
19951;SDS011;10137;49.406;19.484;2023-04-22T00:48:55;18.63;;;9.87;;
19951;SDS011;10137;49.406;19.484;2023-04-22T00:51:24;19.90;;;10.57;;
19951;SDS011;10137;49.406;19.484;2023-04-22T00:53:53;17.57;;;10.07;;
19951;SDS011;10137;49.406;19.484;2023-04-22T00:56:21;18.70;;;10.03;;
19951;SDS011;10137;49.406;19.484;2023-04-22T00:58:51;17.57;;;9.90;;
19951;SDS011;10137;49.406;19.484;2023-04-22T01:01:21;16.43;;;9.93;;
19951;SDS011;10137;49.406;19.484;2023-04-22T01:03:49;19.27;;;10.67;;
19951;SDS011;10137;49.406;19.484;2023-04-22T01:06:20;17.77;;;10.20;;
19951;SDS011;10137;49.406;19.484;2023-04-22T01:08:51;18.10;;;10.50;;
19951;SDS011;10137;49.406;19.484;2023-04-22T01:11:20;16.93;;;9.87;;
19951;SDS011;10137;49.406;19.484;2023-04-22T01:13:47;19.90;;;10.97;;
19951;SDS011;10137;49.406;19.484;2023-04-22T01:16:15;19.93;;;10.27;;
19951;SDS011;10137;49.406;19.484;2023-04-22T01:18:44;18.10;;;10.07;;
19951;SDS011;10137;49.406;19.484;2023-04-22T01:21:12;15.83;;;9.23;;
19951;SDS011;10137;49.406;19.484;2023-04-22T01:23:42;14.80;;;9.10;;
19951;SDS011;10137;49.406;19.484;2023-04-22T01:26:10;17.30;;;9.73;;
19951;SDS011;10137;49.406;19.484;2023-04-22T01:28:37;15.27;;;9.17;;
19951;SDS011;10137;49.406;19.484;2023-04-22T01:31:06;17.47;;;9.97;;
19951;SDS011;10137;49.406;19.484;2023-04-22T01:33:35;15.70;;;9.07;;
19951;SDS011;10137;49.406;19.484;2023-04-22T01:36:03;18.37;;;8.97;;
19951;SDS011;10137;49.406;19.484;2023-04-22T01:38:32;15.87;;;8.37;;
19951;SDS011;10137;49.406;19.484;2023-04-22T01:41:04;15.33;;;9.00;;
19951;SDS011;10137;49.406;19.484;2023-04-22T01:43:31;20.67;;;9.87;;
19951;SDS011;10137;49.406;19.484;2023-04-22T01:46:00;13.73;;;9.07;;
19951;SDS011;10137;49.406;19.484;2023-04-22T01:48:29;18.50;;;9.10;;
19951;SDS011;10137;49.406;19.484;2023-04-22T01:50:57;14.87;;;8.73;;
19951;SDS011;10137;49.406;19.484;2023-04-22T01:53:25;18.43;;;9.83;;
19951;SDS011;10137;49.406;19.484;2023-04-22T01:55:53;17.13;;;9.77;;
19951;SDS011;10137;49.406;19.484;2023-04-22T01:58:23;14.37;;;9.37;;
19951;SDS011;10137;49.406;19.484;2023-04-22T02:00:51;19.20;;;9.70;;
19951;SDS011;10137;49.406;19.484;2023-04-22T02:03:19;17.77;;;8.90;;
19951;SDS011;10137;49.406;19.484;2023-04-22T02:05:47;14.50;;;8.97;;
19951;SDS011;10137;49.406;19.484;2023-04-22T02:08:15;16.60;;;9.53;;
19951;SDS011;10137;49.406;19.484;2023-04-22T02:10:42;16.10;;;8.60;;
19951;SDS011;10137;49.406;19.484;2023-04-22T02:13:10;13.43;;;9.03;;
19951;SDS011;10137;49.406;19.484;2023-04-22T02:15:40;19.37;;;9.00;;
19951;SDS011;10137;49.406;19.484;2023-04-22T02:18:08;16.60;;;9.17;;
19951;SDS011;10137;49.406;19.484;2023-04-22T02:20:36;15.63;;;9.30;;
19951;SDS011;10137;49.406;19.484;2023-04-22T02:23:04;15.23;;;8.70;;
19951;SDS011;10137;49.406;19.484;2023-04-22T02:25:31;16.77;;;9.57;;
19951;SDS011;10137;49.406;19.484;2023-04-22T02:28:03;17.40;;;9.60;;
19951;SDS011;10137;49.406;19.484;2023-04-22T02:30:31;13.13;;;8.83;;
19951;SDS011;10137;49.406;19.484;2023-04-22T02:33:00;15.87;;;8.53;;
19951;SDS011;10137;49.406;19.484;2023-04-22T02:35:28;17.27;;;9.07;;
19951;SDS011;10137;49.406;19.484;2023-04-22T02:37:55;16.97;;;8.57;;
19951;SDS011;10137;49.406;19.484;2023-04-22T02:40:23;17.70;;;7.93;;
19951;SDS011;10137;49.406;19.484;2023-04-22T02:42:52;13.53;;;8.33;;
19951;SDS011;10137;49.406;19.484;2023-04-22T02:45:20;13.20;;;7.77;;
19951;SDS011;10137;49.406;19.484;2023-04-22T02:47:48;14.23;;;8.63;;
19951;SDS011;10137;49.406;19.484;2023-04-22T02:50:18;16.83;;;8.40;;
19951;SDS011;10137;49.406;19.484;2023-04-22T02:52:45;14.20;;;8.27;;
19951;SDS011;10137;49.406;19.484;2023-04-22T02:55:13;14.80;;;8.23;;
19951;SDS011;10137;49.406;19.484;2023-04-22T02:57:41;15.53;;;8.00;;
19951;SDS011;10137;49.406;19.484;2023-04-22T03:00:09;14.73;;;8.30;;
19951;SDS011;10137;49.406;19.484;2023-04-22T03:02:39;13.93;;;7.90;;
19951;SDS011;10137;49.406;19.484;2023-04-22T03:05:07;13.03;;;8.53;;
19951;SDS011;10137;49.406;19.484;2023-04-22T03:07:36;12.47;;;8.30;;
19951;SDS011;10137;49.406;19.484;2023-04-22T03:10:04;13.47;;;8.27;;
19951;SDS011;10137;49.406;19.484;2023-04-22T03:12:33;15.93;;;8.37;;
19951;SDS011;10137;49.406;19.484;2023-04-22T03:15:01;16.03;;;8.20;;
19951;SDS011;10137;49.406;19.484;2023-04-22T03:17:30;14.50;;;7.83;;
19951;SDS011;10137;49.406;19.484;2023-04-22T03:19:58;14.50;;;7.77;;
19951;SDS011;10137;49.406;19.484;2023-04-22T03:22:26;14.97;;;8.40;;
19951;SDS011;10137;49.406;19.484;2023-04-22T03:24:56;16.27;;;8.43;;
19951;SDS011;10137;49.406;19.484;2023-04-22T03:27:24;11.40;;;7.57;;
19951;SDS011;10137;49.406;19.484;2023-04-22T03:29:52;17.30;;;8.10;;
19951;SDS011;10137;49.406;19.484;2023-04-22T03:32:20;13.87;;;8.07;;
19951;SDS011;10137;49.406;19.484;2023-04-22T03:34:47;14.10;;;7.90;;
19951;SDS011;10137;49.406;19.484;2023-04-22T03:37:15;14.57;;;7.70;;
19951;SDS011;10137;49.406;19.484;2023-04-22T03:39:44;14.50;;;8.20;;
19951;SDS011;10137;49.406;19.484;2023-04-22T03:42:14;13.60;;;7.90;;
19951;SDS011;10137;49.406;19.484;2023-04-22T03:44:42;14.07;;;8.30;;
19951;SDS011;10137;49.406;19.484;2023-04-22T03:47:11;15.43;;;8.40;;
19951;SDS011;10137;49.406;19.484;2023-04-22T03:49:38;15.77;;;7.67;;
19951;SDS011;10137;49.406;19.484;2023-04-22T03:52:06;13.97;;;7.90;;
19951;SDS011;10137;49.406;19.484;2023-04-22T03:54:34;13.27;;;8.10;;
19951;SDS011;10137;49.406;19.484;2023-04-22T03:57:03;15.23;;;7.70;;
19951;SDS011;10137;49.406;19.484;2023-04-22T03:59:32;15.40;;;8.43;;
19951;SDS011;10137;49.406;19.484;2023-04-22T04:01:59;15.23;;;8.30;;
19951;SDS011;10137;49.406;19.484;2023-04-22T04:04:30;13.30;;;8.67;;
19951;SDS011;10137;49.406;19.484;2023-04-22T04:06:59;16.27;;;10.40;;
19951;SDS011;10137;49.406;19.484;2023-04-22T04:09:27;15.43;;;8.97;;
19951;SDS011;10137;49.406;19.484;2023-04-22T04:11:55;19.37;;;9.47;;
19951;SDS011;10137;49.406;19.484;2023-04-22T04:14:24;18.90;;;10.27;;
19951;SDS011;10137;49.406;19.484;2023-04-22T04:16:52;21.13;;;10.17;;
19951;SDS011;10137;49.406;19.484;2023-04-22T04:19:21;15.80;;;9.53;;
19951;SDS011;10137;49.406;19.484;2023-04-22T04:21:49;17.07;;;9.20;;
19951;SDS011;10137;49.406;19.484;2023-04-22T04:24:17;16.30;;;9.30;;
19951;SDS011;10137;49.406;19.484;2023-04-22T04:26:46;19.37;;;8.70;;
19951;SDS011;10137;49.406;19.484;2023-04-22T04:29:14;19.17;;;9.37;;
19951;SDS011;10137;49.406;19.484;2023-04-22T04:31:44;15.07;;;8.40;;
19951;SDS011;10137;49.406;19.484;2023-04-22T04:34:13;16.00;;;8.10;;
19951;SDS011;10137;49.406;19.484;2023-04-22T04:36:42;14.40;;;8.47;;
19951;SDS011;10137;49.406;19.484;2023-04-22T04:39:11;14.60;;;9.20;;
19951;SDS011;10137;49.406;19.484;2023-04-22T04:41:44;18.00;;;9.13;;
19951;SDS011;10137;49.406;19.484;2023-04-22T04:44:14;16.50;;;9.00;;
19951;SDS011;10137;49.406;19.484;2023-04-22T04:46:42;14.37;;;8.63;;
19951;SDS011;10137;49.406;19.484;2023-04-22T04:49:11;18.17;;;9.00;;
19951;SDS011;10137;49.406;19.484;2023-04-22T04:51:41;14.40;;;8.67;;
19951;SDS011;10137;49.406;19.484;2023-04-22T04:54:09;14.63;;;9.60;;
19951;SDS011;10137;49.406;19.484;2023-04-22T04:56:37;16.90;;;9.83;;
19951;SDS011;10137;49.406;19.484;2023-04-22T04:59:05;15.23;;;9.60;;
19951;SDS011;10137;49.406;19.484;2023-04-22T05:01:32;16.60;;;9.80;;
19951;SDS011;10137;49.406;19.484;2023-04-22T05:04:01;16.30;;;8.97;;
19951;SDS011;10137;49.406;19.484;2023-04-22T05:06:30;20.00;;;9.50;;
19951;SDS011;10137;49.406;19.484;2023-04-22T05:08:59;15.80;;;8.97;;
19951;SDS011;10137;49.406;19.484;2023-04-22T05:11:27;16.03;;;9.97;;
19951;SDS011;10137;49.406;19.484;2023-04-22T05:13:55;14.40;;;8.93;;
19951;SDS011;10137;49.406;19.484;2023-04-22T05:16:23;15.57;;;8.77;;
19951;SDS011;10137;49.406;19.484;2023-04-22T05:18:52;17.67;;;9.53;;
19951;SDS011;10137;49.406;19.484;2023-04-22T05:21:20;20.27;;;10.13;;
19951;SDS011;10137;49.406;19.484;2023-04-22T05:23:49;15.40;;;8.50;;
19951;SDS011;10137;49.406;19.484;2023-04-22T05:26:18;13.73;;;8.10;;
19951;SDS011;10137;49.406;19.484;2023-04-22T05:28:45;14.13;;;8.00;;
19951;SDS011;10137;49.406;19.484;2023-04-22T05:31:13;16.97;;;8.13;;
19951;SDS011;10137;49.406;19.484;2023-04-22T05:33:41;15.37;;;8.53;;
19951;SDS011;10137;49.406;19.484;2023-04-22T05:36:09;15.80;;;7.97;;
19951;SDS011;10137;49.406;19.484;2023-04-22T05:38:37;17.30;;;7.87;;
19951;SDS011;10137;49.406;19.484;2023-04-22T05:41:07;13.87;;;7.70;;
19951;SDS011;10137;49.406;19.484;2023-04-22T05:43:34;19.30;;;7.80;;
19951;SDS011;10137;49.406;19.484;2023-04-22T05:46:02;15.93;;;8.03;;
19951;SDS011;10137;49.406;19.484;2023-04-22T05:48:30;26.20;;;9.13;;
19951;SDS011;10137;49.406;19.484;2023-04-22T05:50:59;18.07;;;9.13;;
19951;SDS011;10137;49.406;19.484;2023-04-22T05:53:27;19.13;;;9.20;;
19951;SDS011;10137;49.406;19.484;2023-04-22T05:55:55;17.37;;;8.60;;
19951;SDS011;10137;49.406;19.484;2023-04-22T05:58:24;17.17;;;8.27;;
19951;SDS011;10137;49.406;19.484;2023-04-22T06:00:53;16.33;;;8.47;;
19951;SDS011;10137;49.406;19.484;2023-04-22T06:03:21;16.27;;;8.97;;
19951;SDS011;10137;49.406;19.484;2023-04-22T06:05:49;16.40;;;8.83;;
19951;SDS011;10137;49.406;19.484;2023-04-22T06:08:18;14.80;;;8.90;;
19951;SDS011;10137;49.406;19.484;2023-04-22T06:10:45;18.00;;;10.33;;
19951;SDS011;10137;49.406;19.484;2023-04-22T06:13:13;15.77;;;9.73;;
19951;SDS011;10137;49.406;19.484;2023-04-22T06:15:43;20.50;;;11.27;;
19951;SDS011;10137;49.406;19.484;2023-04-22T06:18:11;22.00;;;11.13;;
19951;SDS011;10137;49.406;19.484;2023-04-22T06:20:39;16.37;;;10.27;;
19951;SDS011;10137;49.406;19.484;2023-04-22T06:23:07;14.03;;;9.50;;
19951;SDS011;10137;49.406;19.484;2023-04-22T06:25:35;14.33;;;8.20;;
19951;SDS011;10137;49.406;19.484;2023-04-22T06:28:03;12.23;;;8.10;;
19951;SDS011;10137;49.406;19.484;2023-04-22T06:30:31;13.93;;;7.97;;
19951;SDS011;10137;49.406;19.484;2023-04-22T06:33:01;11.80;;;7.57;;
19951;SDS011;10137;49.406;19.484;2023-04-22T06:35:29;15.33;;;9.63;;
19951;SDS011;10137;49.406;19.484;2023-04-22T06:37:56;16.47;;;9.93;;
19951;SDS011;10137;49.406;19.484;2023-04-22T06:40:25;17.27;;;10.70;;
19951;SDS011;10137;49.406;19.484;2023-04-22T06:42:53;16.97;;;8.80;;
19951;SDS011;10137;49.406;19.484;2023-04-22T06:45:21;16.90;;;9.73;;
19951;SDS011;10137;49.406;19.484;2023-04-22T06:47:50;14.13;;;9.60;;
19951;SDS011;10137;49.406;19.484;2023-04-22T06:50:20;16.30;;;9.10;;
19951;SDS011;10137;49.406;19.484;2023-04-22T06:52:47;14.63;;;10.00;;
19951;SDS011;10137;49.406;19.484;2023-04-22T06:55:15;14.23;;;9.30;;
19951;SDS011;10137;49.406;19.484;2023-04-22T06:57:44;17.47;;;10.00;;
19951;SDS011;10137;49.406;19.484;2023-04-22T07:00:12;16.83;;;9.90;;
19951;SDS011;10137;49.406;19.484;2023-04-22T07:02:40;18.23;;;10.23;;
19951;SDS011;10137;49.406;19.484;2023-04-22T07:05:08;17.17;;;9.77;;
19951;SDS011;10137;49.406;19.484;2023-04-22T07:07:37;15.40;;;10.00;;
19951;SDS011;10137;49.406;19.484;2023-04-22T07:10:05;15.07;;;9.30;;
19951;SDS011;10137;49.406;19.484;2023-04-22T07:12:34;13.00;;;8.67;;
19951;SDS011;10137;49.406;19.484;2023-04-22T07:15:03;18.13;;;8.77;;
19951;SDS011;10137;49.406;19.484;2023-04-22T07:17:32;17.50;;;8.83;;
19951;SDS011;10137;49.406;19.484;2023-04-22T07:20:00;16.53;;;8.60;;
19951;SDS011;10137;49.406;19.484;2023-04-22T07:22:30;14.00;;;8.50;;
19951;SDS011;10137;49.406;19.484;2023-04-22T07:24:59;13.73;;;8.47;;
19951;SDS011;10137;49.406;19.484;2023-04-22T07:27:27;13.37;;;8.10;;
19951;SDS011;10137;49.406;19.484;2023-04-22T07:29:55;15.23;;;9.00;;
19951;SDS011;10137;49.406;19.484;2023-04-22T07:32:24;16.57;;;8.20;;
19951;SDS011;10137;49.406;19.484;2023-04-22T07:34:51;12.43;;;8.53;;
19951;SDS011;10137;49.406;19.484;2023-04-22T07:37:20;11.27;;;7.87;;
19951;SDS011;10137;49.406;19.484;2023-04-22T07:39:48;12.90;;;8.43;;
19951;SDS011;10137;49.406;19.484;2023-04-22T07:42:18;11.73;;;8.73;;
19951;SDS011;10137;49.406;19.484;2023-04-22T07:44:46;20.40;;;8.43;;
19951;SDS011;10137;49.406;19.484;2023-04-22T07:47:14;11.30;;;7.60;;
19951;SDS011;10137;49.406;19.484;2023-04-22T07:49:43;14.47;;;8.40;;
19951;SDS011;10137;49.406;19.484;2023-04-22T07:52:11;14.27;;;8.83;;
19951;SDS011;10137;49.406;19.484;2023-04-22T07:54:40;15.33;;;8.93;;
19951;SDS011;10137;49.406;19.484;2023-04-22T07:57:08;15.13;;;9.00;;
19951;SDS011;10137;49.406;19.484;2023-04-22T07:59:37;15.67;;;8.23;;
19951;SDS011;10137;49.406;19.484;2023-04-22T08:02:05;15.50;;;8.27;;
19951;SDS011;10137;49.406;19.484;2023-04-22T08:04:32;13.00;;;8.20;;
19951;SDS011;10137;49.406;19.484;2023-04-22T08:07:00;13.60;;;8.57;;
19951;SDS011;10137;49.406;19.484;2023-04-22T08:09:29;14.40;;;7.90;;
19951;SDS011;10137;49.406;19.484;2023-04-22T08:11:57;19.30;;;8.00;;
19951;SDS011;10137;49.406;19.484;2023-04-22T08:14:26;14.40;;;8.27;;
19951;SDS011;10137;49.406;19.484;2023-04-22T08:16:55;15.97;;;8.23;;
19951;SDS011;10137;49.406;19.484;2023-04-22T08:19:24;11.17;;;7.97;;
19951;SDS011;10137;49.406;19.484;2023-04-22T08:21:51;11.90;;;7.47;;
19951;SDS011;10137;49.406;19.484;2023-04-22T08:24:20;11.63;;;7.00;;
19951;SDS011;10137;49.406;19.484;2023-04-22T08:26:48;16.10;;;7.13;;
19951;SDS011;10137;49.406;19.484;2023-04-22T08:29:16;10.53;;;6.53;;
19951;SDS011;10137;49.406;19.484;2023-04-22T08:31:43;11.30;;;6.30;;
19951;SDS011;10137;49.406;19.484;2023-04-22T08:34:13;17.23;;;7.87;;
19951;SDS011;10137;49.406;19.484;2023-04-22T08:36:41;11.53;;;6.73;;
19951;SDS011;10137;49.406;19.484;2023-04-22T08:39:10;10.30;;;6.17;;
19951;SDS011;10137;49.406;19.484;2023-04-22T08:41:38;11.10;;;5.57;;
19951;SDS011;10137;49.406;19.484;2023-04-22T08:44:10;7.77;;;6.20;;
19951;SDS011;10137;49.406;19.484;2023-04-22T08:46:37;10.53;;;6.33;;
19951;SDS011;10137;49.406;19.484;2023-04-22T08:49:06;11.23;;;6.20;;
19951;SDS011;10137;49.406;19.484;2023-04-22T08:51:36;8.83;;;5.47;;
19951;SDS011;10137;49.406;19.484;2023-04-22T08:54:05;11.10;;;5.70;;
19951;SDS011;10137;49.406;19.484;2023-04-22T08:56:32;7.27;;;4.87;;
19951;SDS011;10137;49.406;19.484;2023-04-22T08:59:02;8.40;;;4.30;;
19951;SDS011;10137;49.406;19.484;2023-04-22T09:01:30;7.93;;;4.27;;
19951;SDS011;10137;49.406;19.484;2023-04-22T09:03:59;11.50;;;4.47;;
19951;SDS011;10137;49.406;19.484;2023-04-22T09:06:28;6.97;;;3.87;;
19951;SDS011;10137;49.406;19.484;2023-04-22T09:09:00;5.93;;;3.87;;
19951;SDS011;10137;49.406;19.484;2023-04-22T09:11:29;11.68;;;4.40;;
19951;SDS011;10137;49.406;19.484;2023-04-22T09:13:58;8.93;;;4.13;;
19951;SDS011;10137;49.406;19.484;2023-04-22T09:16:28;9.45;;;4.30;;
19951;SDS011;10137;49.406;19.484;2023-04-22T09:18:57;6.35;;;3.83;;
19951;SDS011;10137;49.406;19.484;2023-04-22T09:21:26;6.43;;;3.85;;
19951;SDS011;10137;49.406;19.484;2023-04-22T09:23:55;7.53;;;4.20;;
19951;SDS011;10137;49.406;19.484;2023-04-22T09:26:25;5.13;;;3.90;;
19951;SDS011;10137;49.406;19.484;2023-04-22T09:28:53;8.02;;;4.15;;
19951;SDS011;10137;49.406;19.484;2023-04-22T09:31:24;4.88;;;3.50;;
19951;SDS011;10137;49.406;19.484;2023-04-22T09:33:54;7.53;;;4.07;;
19951;SDS011;10137;49.406;19.484;2023-04-22T09:36:24;5.80;;;4.15;;
19951;SDS011;10137;49.406;19.484;2023-04-22T09:38:54;4.82;;;3.42;;
19951;SDS011;10137;49.406;19.484;2023-04-22T09:41:30;5.90;;;3.53;;
19951;SDS011;10137;49.406;19.484;2023-04-22T09:43:59;6.65;;;3.97;;
19951;SDS011;10137;49.406;19.484;2023-04-22T09:46:28;5.30;;;3.83;;
19951;SDS011;10137;49.406;19.484;2023-04-22T09:48:57;9.52;;;4.07;;
19951;SDS011;10137;49.406;19.484;2023-04-22T09:51:26;10.35;;;4.05;;
19951;SDS011;10137;49.406;19.484;2023-04-22T09:53:59;4.35;;;3.33;;
19951;SDS011;10137;49.406;19.484;2023-04-22T09:56:45;3.97;;;3.10;;
19951;SDS011;10137;49.406;19.484;2023-04-22T09:59:18;7.82;;;3.38;;
19951;SDS011;10137;49.406;19.484;2023-04-22T10:01:46;8.05;;;3.35;;
19951;SDS011;10137;49.406;19.484;2023-04-22T10:04:15;6.03;;;3.20;;
19951;SDS011;10137;49.406;19.484;2023-04-22T10:06:46;5.07;;;3.53;;
19951;SDS011;10137;49.406;19.484;2023-04-22T10:09:16;7.65;;;3.25;;
19951;SDS011;10137;49.406;19.484;2023-04-22T10:11:47;6.60;;;3.15;;
19951;SDS011;10137;49.406;19.484;2023-04-22T10:14:16;4.20;;;3.15;;
19951;SDS011;10137;49.406;19.484;2023-04-22T10:16:44;7.13;;;3.17;;
19951;SDS011;10137;49.406;19.484;2023-04-22T10:19:15;7.70;;;2.95;;
19951;SDS011;10137;49.406;19.484;2023-04-22T10:21:48;4.70;;;3.45;;
19951;SDS011;10137;49.406;19.484;2023-04-22T10:24:19;5.20;;;3.17;;
19951;SDS011;10137;49.406;19.484;2023-04-22T10:26:50;9.50;;;3.85;;
19951;SDS011;10137;49.406;19.484;2023-04-22T10:29:22;5.53;;;3.20;;
19951;SDS011;10137;49.406;19.484;2023-04-22T10:31:50;5.45;;;2.95;;
19951;SDS011;10137;49.406;19.484;2023-04-22T10:34:22;4.47;;;3.13;;
19951;SDS011;10137;49.406;19.484;2023-04-22T10:36:54;5.05;;;3.05;;
19951;SDS011;10137;49.406;19.484;2023-04-22T10:39:24;6.20;;;3.33;;
19951;SDS011;10137;49.406;19.484;2023-04-22T10:42:03;6.28;;;3.65;;
19951;SDS011;10137;49.406;19.484;2023-04-22T10:44:46;7.18;;;3.53;;
19951;SDS011;10137;49.406;19.484;2023-04-22T10:47:25;15.23;;;5.13;;
19951;SDS011;10137;49.406;19.484;2023-04-22T10:50:11;7.47;;;4.57;;
19951;SDS011;10137;49.406;19.484;2023-04-22T10:52:45;8.85;;;4.28;;
19951;SDS011;10137;49.406;19.484;2023-04-22T10:55:15;6.28;;;3.20;;
19951;SDS011;10137;49.406;19.484;2023-04-22T10:57:45;3.92;;;2.90;;
19951;SDS011;10137;49.406;19.484;2023-04-22T11:00:27;5.15;;;2.92;;
19951;SDS011;10137;49.406;19.484;2023-04-22T11:03:12;3.30;;;2.72;;
19951;SDS011;10137;49.406;19.484;2023-04-22T11:05:42;5.35;;;2.90;;
19951;SDS011;10137;49.406;19.484;2023-04-22T11:08:14;5.07;;;2.90;;
19951;SDS011;10137;49.406;19.484;2023-04-22T11:10:47;5.45;;;3.47;;
19951;SDS011;10137;49.406;19.484;2023-04-22T11:13:19;4.88;;;2.97;;
19951;SDS011;10137;49.406;19.484;2023-04-22T11:15:48;3.72;;;3.00;;
19951;SDS011;10137;49.406;19.484;2023-04-22T11:18:19;7.75;;;2.92;;
19951;SDS011;10137;49.406;19.484;2023-04-22T11:20:49;4.60;;;2.63;;
19951;SDS011;10137;49.406;19.484;2023-04-22T11:23:22;6.75;;;3.20;;
19951;SDS011;10137;49.406;19.484;2023-04-22T11:25:55;6.63;;;2.80;;
19951;SDS011;10137;49.406;19.484;2023-04-22T11:28:25;4.93;;;3.00;;
19951;SDS011;10137;49.406;19.484;2023-04-22T11:31:00;4.72;;;2.95;;
19951;SDS011;10137;49.406;19.484;2023-04-22T11:33:30;5.83;;;3.00;;
19951;SDS011;10137;49.406;19.484;2023-04-22T11:35:59;5.57;;;2.90;;
19951;SDS011;10137;49.406;19.484;2023-04-22T11:38:27;5.17;;;2.90;;
19951;SDS011;10137;49.406;19.484;2023-04-22T11:40:54;5.40;;;3.00;;
19951;SDS011;10137;49.406;19.484;2023-04-22T11:43:26;5.20;;;3.07;;
19951;SDS011;10137;49.406;19.484;2023-04-22T11:45:54;4.17;;;2.93;;
19951;SDS011;10137;49.406;19.484;2023-04-22T11:48:23;11.73;;;3.37;;
19951;SDS011;10137;49.406;19.484;2023-04-22T11:51:05;7.87;;;3.07;;
19951;SDS011;10137;49.406;19.484;2023-04-22T11:53:34;5.70;;;2.83;;
19951;SDS011;10137;49.406;19.484;2023-04-22T11:56:04;5.90;;;2.60;;
19951;SDS011;10137;49.406;19.484;2023-04-22T11:58:32;8.00;;;3.17;;
19951;SDS011;10137;49.406;19.484;2023-04-22T12:01:10;5.77;;;2.70;;
19951;SDS011;10137;49.406;19.484;2023-04-22T12:03:39;5.87;;;2.80;;
19951;SDS011;10137;49.406;19.484;2023-04-22T12:06:08;5.30;;;3.23;;
19951;SDS011;10137;49.406;19.484;2023-04-22T12:08:36;3.53;;;2.47;;
19951;SDS011;10137;49.406;19.484;2023-04-22T12:11:07;3.63;;;2.80;;
19951;SDS011;10137;49.406;19.484;2023-04-22T12:13:40;6.67;;;3.17;;
19951;SDS011;10137;49.406;19.484;2023-04-22T12:16:11;5.23;;;2.93;;
19951;SDS011;10137;49.406;19.484;2023-04-22T12:18:40;5.70;;;3.00;;
19951;SDS011;10137;49.406;19.484;2023-04-22T12:21:16;4.50;;;2.40;;
19951;SDS011;10137;49.406;19.484;2023-04-22T12:23:46;6.43;;;2.53;;
19951;SDS011;10137;49.406;19.484;2023-04-22T12:26:15;5.70;;;3.00;;
19951;SDS011;10137;49.406;19.484;2023-04-22T12:28:45;4.43;;;2.80;;
19951;SDS011;10137;49.406;19.484;2023-04-22T12:31:15;4.23;;;2.87;;
19951;SDS011;10137;49.406;19.484;2023-04-22T12:33:44;4.17;;;2.80;;
19951;SDS011;10137;49.406;19.484;2023-04-22T12:36:13;4.73;;;2.27;;
19951;SDS011;10137;49.406;19.484;2023-04-22T12:38:41;2.90;;;2.23;;
19951;SDS011;10137;49.406;19.484;2023-04-22T12:41:09;3.83;;;2.47;;
19951;SDS011;10137;49.406;19.484;2023-04-22T12:43:36;5.97;;;2.30;;
19951;SDS011;10137;49.406;19.484;2023-04-22T12:46:07;3.17;;;2.30;;
19951;SDS011;10137;49.406;19.484;2023-04-22T12:48:35;4.93;;;2.37;;
19951;SDS011;10137;49.406;19.484;2023-04-22T12:51:03;4.80;;;2.47;;
19951;SDS011;10137;49.406;19.484;2023-04-22T12:53:32;4.33;;;2.73;;
19951;SDS011;10137;49.406;19.484;2023-04-22T12:56:00;3.63;;;2.30;;
19951;SDS011;10137;49.406;19.484;2023-04-22T12:58:30;2.97;;;2.13;;
19951;SDS011;10137;49.406;19.484;2023-04-22T13:00:58;3.50;;;2.30;;
19951;SDS011;10137;49.406;19.484;2023-04-22T13:03:28;2.90;;;2.60;;
19951;SDS011;10137;49.406;19.484;2023-04-22T13:05:56;5.30;;;2.10;;
19951;SDS011;10137;49.406;19.484;2023-04-22T13:08:25;3.63;;;2.30;;
19951;SDS011;10137;49.406;19.484;2023-04-22T13:10:52;5.40;;;2.00;;
19951;SDS011;10137;49.406;19.484;2023-04-22T13:13:18;3.23;;;1.80;;
19951;SDS011;10137;49.406;19.484;2023-04-22T13:15:46;3.27;;;2.10;;
19951;SDS011;10137;49.406;19.484;2023-04-22T13:18:17;5.10;;;2.63;;
19951;SDS011;10137;49.406;19.484;2023-04-22T13:20:45;3.73;;;2.00;;
19951;SDS011;10137;49.406;19.484;2023-04-22T13:23:12;3.70;;;2.50;;
19951;SDS011;10137;49.406;19.484;2023-04-22T13:25:41;5.20;;;2.53;;
19951;SDS011;10137;49.406;19.484;2023-04-22T13:28:07;5.27;;;2.33;;
19951;SDS011;10137;49.406;19.484;2023-04-22T13:30:35;3.83;;;2.30;;
19951;SDS011;10137;49.406;19.484;2023-04-22T13:33:02;2.80;;;2.10;;
19951;SDS011;10137;49.406;19.484;2023-04-22T13:35:29;4.77;;;2.30;;
19951;SDS011;10137;49.406;19.484;2023-04-22T13:37:58;4.40;;;2.43;;
19951;SDS011;10137;49.406;19.484;2023-04-22T13:40:25;4.07;;;2.30;;
19951;SDS011;10137;49.406;19.484;2023-04-22T13:42:52;5.70;;;2.90;;
19951;SDS011;10137;49.406;19.484;2023-04-22T13:45:19;4.77;;;2.50;;
19951;SDS011;10137;49.406;19.484;2023-04-22T13:47:46;6.53;;;2.27;;
19951;SDS011;10137;49.406;19.484;2023-04-22T13:50:13;4.20;;;2.57;;
19951;SDS011;10137;49.406;19.484;2023-04-22T13:52:40;3.70;;;2.30;;
19951;SDS011;10137;49.406;19.484;2023-04-22T13:55:09;4.10;;;2.50;;
19951;SDS011;10137;49.406;19.484;2023-04-22T13:57:36;3.60;;;2.40;;
19951;SDS011;10137;49.406;19.484;2023-04-22T14:00:03;2.63;;;2.20;;
19951;SDS011;10137;49.406;19.484;2023-04-22T14:02:31;3.50;;;2.13;;
19951;SDS011;10137;49.406;19.484;2023-04-22T14:04:58;3.83;;;2.37;;
19951;SDS011;10137;49.406;19.484;2023-04-22T14:07:25;4.43;;;2.43;;
19951;SDS011;10137;49.406;19.484;2023-04-22T14:09:52;7.73;;;2.60;;
19951;SDS011;10137;49.406;19.484;2023-04-22T14:12:21;2.83;;;2.20;;
19951;SDS011;10137;49.406;19.484;2023-04-22T14:14:48;4.03;;;2.40;;
19951;SDS011;10137;49.406;19.484;2023-04-22T14:17:16;3.73;;;2.23;;
19951;SDS011;10137;49.406;19.484;2023-04-22T14:19:43;3.87;;;2.30;;
19951;SDS011;10137;49.406;19.484;2023-04-22T14:22:10;5.43;;;2.57;;
19951;SDS011;10137;49.406;19.484;2023-04-22T14:24:38;5.17;;;2.80;;
19951;SDS011;10137;49.406;19.484;2023-04-22T14:27:05;5.33;;;2.83;;
19951;SDS011;10137;49.406;19.484;2023-04-22T14:29:33;5.00;;;2.53;;
19951;SDS011;10137;49.406;19.484;2023-04-22T14:32:00;6.23;;;2.60;;
19951;SDS011;10137;49.406;19.484;2023-04-22T14:34:27;3.23;;;2.60;;
19951;SDS011;10137;49.406;19.484;2023-04-22T14:36:54;3.10;;;2.20;;